sensor_id;sensor_type;location;lat;lon;timestamp;P1;durP1;ratioP1;P2;durP2;ratioP2
77589;SDS011;66746;51.328;12.332;2023-04-15T00:01:50;14.88;;;10.00;;
77589;SDS011;66746;51.328;12.332;2023-04-15T00:04:17;14.43;;;9.70;;
77589;SDS011;66746;51.328;12.332;2023-04-15T00:06:48;15.77;;;11.65;;
77589;SDS011;66746;51.328;12.332;2023-04-15T00:09:15;13.93;;;9.48;;
77589;SDS011;66746;51.328;12.332;2023-04-15T00:11:42;14.65;;;9.48;;
77589;SDS011;66746;51.328;12.332;2023-04-15T00:14:08;13.02;;;9.07;;
77589;SDS011;66746;51.328;12.332;2023-04-15T00:16:34;13.93;;;9.70;;
77589;SDS011;66746;51.328;12.332;2023-04-15T00:19:02;14.05;;;9.35;;
77589;SDS011;66746;51.328;12.332;2023-04-15T00:21:29;11.07;;;9.75;;
77589;SDS011;66746;51.328;12.332;2023-04-15T00:23:55;10.05;;;6.97;;
77589;SDS011;66746;51.328;12.332;2023-04-15T00:26:22;8.95;;;7.15;;
77589;SDS011;66746;51.328;12.332;2023-04-15T00:28:48;9.43;;;6.43;;
77589;SDS011;66746;51.328;12.332;2023-04-15T00:31:15;9.27;;;8.18;;
77589;SDS011;66746;51.328;12.332;2023-04-15T00:33:47;11.10;;;9.85;;
77589;SDS011;66746;51.328;12.332;2023-04-15T00:36:16;9.02;;;6.80;;
77589;SDS011;66746;51.328;12.332;2023-04-15T00:38:43;10.35;;;7.50;;
77589;SDS011;66746;51.328;12.332;2023-04-15T00:41:09;8.95;;;7.90;;
77589;SDS011;66746;51.328;12.332;2023-04-15T00:43:36;14.23;;;9.10;;
77589;SDS011;66746;51.328;12.332;2023-04-15T00:46:03;10.00;;;8.68;;
77589;SDS011;66746;51.328;12.332;2023-04-15T00:48:29;9.10;;;8.20;;
77589;SDS011;66746;51.328;12.332;2023-04-15T00:50:56;9.70;;;8.55;;
77589;SDS011;66746;51.328;12.332;2023-04-15T00:53:24;10.38;;;8.60;;
77589;SDS011;66746;51.328;12.332;2023-04-15T00:55:51;9.25;;;7.15;;
77589;SDS011;66746;51.328;12.332;2023-04-15T00:58:18;10.50;;;8.38;;
77589;SDS011;66746;51.328;12.332;2023-04-15T01:00:45;9.52;;;6.53;;
77589;SDS011;66746;51.328;12.332;2023-04-15T01:03:12;10.70;;;8.38;;
77589;SDS011;66746;51.328;12.332;2023-04-15T01:05:39;9.63;;;8.13;;
77589;SDS011;66746;51.328;12.332;2023-04-15T01:08:05;9.85;;;8.40;;
77589;SDS011;66746;51.328;12.332;2023-04-15T01:10:33;8.80;;;7.07;;
77589;SDS011;66746;51.328;12.332;2023-04-15T01:13:00;11.65;;;9.05;;
77589;SDS011;66746;51.328;12.332;2023-04-15T01:15:28;11.93;;;8.95;;
77589;SDS011;66746;51.328;12.332;2023-04-15T01:17:54;9.93;;;7.03;;
77589;SDS011;66746;51.328;12.332;2023-04-15T01:20:22;9.27;;;7.63;;
77589;SDS011;66746;51.328;12.332;2023-04-15T01:22:49;10.52;;;7.90;;
77589;SDS011;66746;51.328;12.332;2023-04-15T01:25:16;9.68;;;6.57;;
77589;SDS011;66746;51.328;12.332;2023-04-15T01:27:45;8.75;;;6.45;;
77589;SDS011;66746;51.328;12.332;2023-04-15T01:30:12;9.68;;;8.20;;
77589;SDS011;66746;51.328;12.332;2023-04-15T01:32:38;9.70;;;6.43;;
77589;SDS011;66746;51.328;12.332;2023-04-15T01:35:05;10.05;;;6.32;;
77589;SDS011;66746;51.328;12.332;2023-04-15T01:37:32;9.10;;;5.85;;
77589;SDS011;66746;51.328;12.332;2023-04-15T01:39:58;11.05;;;9.70;;
77589;SDS011;66746;51.328;12.332;2023-04-15T01:42:25;9.68;;;6.43;;
77589;SDS011;66746;51.328;12.332;2023-04-15T01:44:53;8.85;;;6.47;;
77589;SDS011;66746;51.328;12.332;2023-04-15T01:47:20;11.57;;;6.65;;
77589;SDS011;66746;51.328;12.332;2023-04-15T01:49:46;10.18;;;9.10;;
77589;SDS011;66746;51.328;12.332;2023-04-15T01:52:13;10.13;;;7.60;;
77589;SDS011;66746;51.328;12.332;2023-04-15T01:54:39;10.30;;;8.65;;
77589;SDS011;66746;51.328;12.332;2023-04-15T01:57:05;11.73;;;10.15;;
77589;SDS011;66746;51.328;12.332;2023-04-15T01:59:33;12.07;;;7.57;;
77589;SDS011;66746;51.328;12.332;2023-04-15T02:02:00;11.15;;;8.15;;
77589;SDS011;66746;51.328;12.332;2023-04-15T02:04:27;10.98;;;8.07;;
77589;SDS011;66746;51.328;12.332;2023-04-15T02:06:56;9.80;;;8.02;;
77589;SDS011;66746;51.328;12.332;2023-04-15T02:09:22;11.10;;;8.93;;
77589;SDS011;66746;51.328;12.332;2023-04-15T02:11:49;10.05;;;6.05;;
77589;SDS011;66746;51.328;12.332;2023-04-15T02:14:16;11.57;;;8.70;;
77589;SDS011;66746;51.328;12.332;2023-04-15T02:16:42;12.25;;;8.63;;
77589;SDS011;66746;51.328;12.332;2023-04-15T02:19:10;10.73;;;7.05;;
77589;SDS011;66746;51.328;12.332;2023-04-15T02:21:37;12.02;;;9.20;;
77589;SDS011;66746;51.328;12.332;2023-04-15T02:24:03;11.20;;;7.63;;
77589;SDS011;66746;51.328;12.332;2023-04-15T02:26:31;10.82;;;8.15;;
77589;SDS011;66746;51.328;12.332;2023-04-15T02:28:57;9.35;;;6.65;;
77589;SDS011;66746;51.328;12.332;2023-04-15T02:31:24;10.07;;;6.88;;
77589;SDS011;66746;51.328;12.332;2023-04-15T02:33:51;10.15;;;8.50;;
77589;SDS011;66746;51.328;12.332;2023-04-15T02:36:19;11.00;;;7.50;;
77589;SDS011;66746;51.328;12.332;2023-04-15T02:38:45;16.77;;;8.77;;
77589;SDS011;66746;51.328;12.332;2023-04-15T02:41:13;9.75;;;6.82;;
77589;SDS011;66746;51.328;12.332;2023-04-15T02:43:42;9.30;;;6.65;;
77589;SDS011;66746;51.328;12.332;2023-04-15T02:46:08;9.65;;;8.45;;
77589;SDS011;66746;51.328;12.332;2023-04-15T02:48:36;8.85;;;6.38;;
77589;SDS011;66746;51.328;12.332;2023-04-15T02:51:12;9.50;;;6.38;;
77589;SDS011;66746;51.328;12.332;2023-04-15T02:53:41;10.75;;;8.43;;
77589;SDS011;66746;51.328;12.332;2023-04-15T02:56:08;12.02;;;10.25;;
77589;SDS011;66746;51.328;12.332;2023-04-15T02:58:34;12.40;;;8.95;;
77589;SDS011;66746;51.328;12.332;2023-04-15T03:01:01;12.88;;;8.55;;
77589;SDS011;66746;51.328;12.332;2023-04-15T03:03:28;13.25;;;7.78;;
77589;SDS011;66746;51.328;12.332;2023-04-15T03:05:54;12.30;;;7.68;;
77589;SDS011;66746;51.328;12.332;2023-04-15T03:08:21;12.38;;;9.50;;
77589;SDS011;66746;51.328;12.332;2023-04-15T03:10:49;14.07;;;9.63;;
77589;SDS011;66746;51.328;12.332;2023-04-15T03:13:16;14.32;;;10.60;;
77589;SDS011;66746;51.328;12.332;2023-04-15T03:15:42;16.70;;;12.65;;
77589;SDS011;66746;51.328;12.332;2023-04-15T03:18:09;16.08;;;11.77;;
77589;SDS011;66746;51.328;12.332;2023-04-15T03:20:35;15.27;;;11.40;;
77589;SDS011;66746;51.328;12.332;2023-04-15T03:23:02;15.15;;;9.73;;
77589;SDS011;66746;51.328;12.332;2023-04-15T03:25:28;14.80;;;8.15;;
77589;SDS011;66746;51.328;12.332;2023-04-15T03:27:56;14.90;;;11.20;;
77589;SDS011;66746;51.328;12.332;2023-04-15T03:30:22;12.73;;;8.93;;
77589;SDS011;66746;51.328;12.332;2023-04-15T03:32:49;11.98;;;9.27;;
77589;SDS011;66746;51.328;12.332;2023-04-15T03:35:16;12.63;;;9.93;;
77589;SDS011;66746;51.328;12.332;2023-04-15T03:37:42;13.77;;;10.85;;
77589;SDS011;66746;51.328;12.332;2023-04-15T03:40:09;13.77;;;9.20;;
77589;SDS011;66746;51.328;12.332;2023-04-15T03:42:36;12.55;;;7.68;;
77589;SDS011;66746;51.328;12.332;2023-04-15T03:45:04;12.73;;;9.40;;
77589;SDS011;66746;51.328;12.332;2023-04-15T03:47:32;13.38;;;9.57;;
77589;SDS011;66746;51.328;12.332;2023-04-15T03:49:58;12.20;;;9.43;;
77589;SDS011;66746;51.328;12.332;2023-04-15T03:52:25;11.18;;;8.65;;
77589;SDS011;66746;51.328;12.332;2023-04-15T03:54:51;13.18;;;10.73;;
77589;SDS011;66746;51.328;12.332;2023-04-15T03:57:17;11.15;;;7.55;;
77589;SDS011;66746;51.328;12.332;2023-04-15T03:59:44;10.38;;;7.38;;
77589;SDS011;66746;51.328;12.332;2023-04-15T04:02:12;11.23;;;8.02;;
77589;SDS011;66746;51.328;12.332;2023-04-15T04:04:38;12.50;;;8.32;;
77589;SDS011;66746;51.328;12.332;2023-04-15T04:07:05;8.98;;;6.70;;
77589;SDS011;66746;51.328;12.332;2023-04-15T04:09:31;9.23;;;6.07;;
77589;SDS011;66746;51.328;12.332;2023-04-15T04:11:57;9.73;;;7.35;;
77589;SDS011;66746;51.328;12.332;2023-04-15T04:14:24;10.02;;;7.30;;
77589;SDS011;66746;51.328;12.332;2023-04-15T04:16:50;9.75;;;8.07;;
77589;SDS011;66746;51.328;12.332;2023-04-15T04:19:18;9.55;;;8.40;;
77589;SDS011;66746;51.328;12.332;2023-04-15T04:21:44;11.00;;;7.63;;
77589;SDS011;66746;51.328;12.332;2023-04-15T04:24:11;9.80;;;8.27;;
77589;SDS011;66746;51.328;12.332;2023-04-15T04:26:37;10.15;;;8.60;;
77589;SDS011;66746;51.328;12.332;2023-04-15T04:29:04;12.20;;;8.00;;
77589;SDS011;66746;51.328;12.332;2023-04-15T04:31:30;11.25;;;10.13;;
77589;SDS011;66746;51.328;12.332;2023-04-15T04:33:57;10.45;;;7.97;;
77589;SDS011;66746;51.328;12.332;2023-04-15T04:36:24;9.38;;;7.32;;
77589;SDS011;66746;51.328;12.332;2023-04-15T04:38:51;11.18;;;8.38;;
77589;SDS011;66746;51.328;12.332;2023-04-15T04:41:17;8.40;;;6.45;;
77589;SDS011;66746;51.328;12.332;2023-04-15T04:43:43;9.40;;;7.07;;
77589;SDS011;66746;51.328;12.332;2023-04-15T04:46:10;9.70;;;8.70;;
77589;SDS011;66746;51.328;12.332;2023-04-15T04:48:36;9.60;;;6.88;;
77589;SDS011;66746;51.328;12.332;2023-04-15T04:51:03;11.60;;;8.85;;
77589;SDS011;66746;51.328;12.332;2023-04-15T04:53:31;8.68;;;7.18;;
77589;SDS011;66746;51.328;12.332;2023-04-15T04:55:57;10.07;;;9.00;;
77589;SDS011;66746;51.328;12.332;2023-04-15T04:58:24;10.60;;;6.75;;
77589;SDS011;66746;51.328;12.332;2023-04-15T05:00:50;10.70;;;8.40;;
77589;SDS011;66746;51.328;12.332;2023-04-15T05:03:17;11.27;;;9.23;;
77589;SDS011;66746;51.328;12.332;2023-04-15T05:05:44;10.82;;;7.63;;
77589;SDS011;66746;51.328;12.332;2023-04-15T05:08:10;10.50;;;9.38;;
77589;SDS011;66746;51.328;12.332;2023-04-15T05:10:38;9.30;;;6.18;;
77589;SDS011;66746;51.328;12.332;2023-04-15T05:13:05;10.73;;;8.70;;
77589;SDS011;66746;51.328;12.332;2023-04-15T05:15:31;13.88;;;9.77;;
77589;SDS011;66746;51.328;12.332;2023-04-15T05:17:58;9.07;;;7.78;;
77589;SDS011;66746;51.328;12.332;2023-04-15T05:20:24;8.77;;;6.20;;
77589;SDS011;66746;51.328;12.332;2023-04-15T05:22:50;10.05;;;7.80;;
77589;SDS011;66746;51.328;12.332;2023-04-15T05:25:17;9.07;;;7.18;;
77589;SDS011;66746;51.328;12.332;2023-04-15T05:27:45;10.73;;;8.73;;
77589;SDS011;66746;51.328;12.332;2023-04-15T05:30:11;10.23;;;9.07;;
77589;SDS011;66746;51.328;12.332;2023-04-15T05:32:39;9.93;;;8.10;;
77589;SDS011;66746;51.328;12.332;2023-04-15T05:35:05;8.88;;;5.90;;
77589;SDS011;66746;51.328;12.332;2023-04-15T05:37:32;10.00;;;8.27;;
77589;SDS011;66746;51.328;12.332;2023-04-15T05:39:59;9.30;;;7.25;;
77589;SDS011;66746;51.328;12.332;2023-04-15T05:42:25;7.97;;;5.95;;
77589;SDS011;66746;51.328;12.332;2023-04-15T05:44:53;10.18;;;7.57;;
77589;SDS011;66746;51.328;12.332;2023-04-15T05:47:19;11.00;;;6.65;;
77589;SDS011;66746;51.328;12.332;2023-04-15T05:49:46;11.43;;;10.32;;
77589;SDS011;66746;51.328;12.332;2023-04-15T05:52:12;10.77;;;8.95;;
77589;SDS011;66746;51.328;12.332;2023-04-15T05:54:38;9.52;;;5.93;;
77589;SDS011;66746;51.328;12.332;2023-04-15T05:57:05;10.10;;;8.23;;
77589;SDS011;66746;51.328;12.332;2023-04-15T05:59:31;10.48;;;8.48;;
77589;SDS011;66746;51.328;12.332;2023-04-15T06:01:59;9.88;;;7.97;;
77589;SDS011;66746;51.328;12.332;2023-04-15T06:04:26;12.45;;;9.95;;
77589;SDS011;66746;51.328;12.332;2023-04-15T06:06:52;10.40;;;8.40;;
77589;SDS011;66746;51.328;12.332;2023-04-15T06:09:19;10.52;;;8.73;;
77589;SDS011;66746;51.328;12.332;2023-04-15T06:11:46;10.38;;;8.20;;
77589;SDS011;66746;51.328;12.332;2023-04-15T06:14:12;10.88;;;8.60;;
77589;SDS011;66746;51.328;12.332;2023-04-15T06:16:38;10.82;;;7.72;;
77589;SDS011;66746;51.328;12.332;2023-04-15T06:19:06;9.73;;;8.27;;
77589;SDS011;66746;51.328;12.332;2023-04-15T06:21:33;8.05;;;6.57;;
77589;SDS011;66746;51.328;12.332;2023-04-15T06:23:59;7.22;;;6.45;;
77589;SDS011;66746;51.328;12.332;2023-04-15T06:26:26;8.43;;;5.47;;
77589;SDS011;66746;51.328;12.332;2023-04-15T06:28:52;8.15;;;7.20;;
77589;SDS011;66746;51.328;12.332;2023-04-15T06:31:18;8.45;;;5.75;;
77589;SDS011;66746;51.328;12.332;2023-04-15T06:33:45;8.77;;;7.88;;
77589;SDS011;66746;51.328;12.332;2023-04-15T06:36:13;7.53;;;5.53;;
77589;SDS011;66746;51.328;12.332;2023-04-15T06:38:39;7.75;;;5.35;;
77589;SDS011;66746;51.328;12.332;2023-04-15T06:41:06;9.25;;;7.70;;
77589;SDS011;66746;51.328;12.332;2023-04-15T06:43:32;10.15;;;7.93;;
77589;SDS011;66746;51.328;12.332;2023-04-15T06:45:58;8.45;;;6.38;;
77589;SDS011;66746;51.328;12.332;2023-04-15T06:48:25;10.02;;;7.72;;
77589;SDS011;66746;51.328;12.332;2023-04-15T06:50:51;8.63;;;5.45;;
77589;SDS011;66746;51.328;12.332;2023-04-15T06:53:19;10.63;;;8.05;;
77589;SDS011;66746;51.328;12.332;2023-04-15T06:55:46;10.48;;;8.25;;
77589;SDS011;66746;51.328;12.332;2023-04-15T06:58:12;9.63;;;7.22;;
77589;SDS011;66746;51.328;12.332;2023-04-15T07:00:43;10.18;;;8.07;;
77589;SDS011;66746;51.328;12.332;2023-04-15T07:03:17;10.65;;;8.18;;
77589;SDS011;66746;51.328;12.332;2023-04-15T07:05:49;9.98;;;7.75;;
77589;SDS011;66746;51.328;12.332;2023-04-15T07:08:20;11.35;;;8.07;;
77589;SDS011;66746;51.328;12.332;2023-04-15T07:10:48;10.48;;;7.43;;
77589;SDS011;66746;51.328;12.332;2023-04-15T07:13:18;11.20;;;8.57;;
77589;SDS011;66746;51.328;12.332;2023-04-15T07:15:48;11.85;;;9.10;;
77589;SDS011;66746;51.328;12.332;2023-04-15T07:18:14;12.77;;;11.40;;
77589;SDS011;66746;51.328;12.332;2023-04-15T07:20:45;13.15;;;7.55;;
77589;SDS011;66746;51.328;12.332;2023-04-15T07:23:20;13.73;;;8.90;;
77589;SDS011;66746;51.328;12.332;2023-04-15T07:25:48;13.75;;;10.85;;
77589;SDS011;66746;51.328;12.332;2023-04-15T07:28:20;14.35;;;9.25;;
77589;SDS011;66746;51.328;12.332;2023-04-15T07:30:47;13.63;;;10.45;;
77589;SDS011;66746;51.328;12.332;2023-04-15T07:33:20;13.65;;;10.07;;
77589;SDS011;66746;51.328;12.332;2023-04-15T07:35:47;13.80;;;9.00;;
77589;SDS011;66746;51.328;12.332;2023-04-15T07:38:13;14.05;;;10.70;;
77589;SDS011;66746;51.328;12.332;2023-04-15T07:40:48;13.75;;;10.30;;
77589;SDS011;66746;51.328;12.332;2023-04-15T07:43:20;14.40;;;11.00;;
77589;SDS011;66746;51.328;12.332;2023-04-15T07:45:47;15.63;;;12.10;;
77589;SDS011;66746;51.328;12.332;2023-04-15T07:48:19;15.00;;;10.98;;
77589;SDS011;66746;51.328;12.332;2023-04-15T07:50:48;13.90;;;8.63;;
77589;SDS011;66746;51.328;12.332;2023-04-15T07:53:18;15.10;;;10.15;;
77589;SDS011;66746;51.328;12.332;2023-04-15T07:55:55;15.43;;;10.15;;
77589;SDS011;66746;51.328;12.332;2023-04-15T07:58:22;14.82;;;10.48;;
77589;SDS011;66746;51.328;12.332;2023-04-15T08:00:48;14.93;;;11.05;;
77589;SDS011;66746;51.328;12.332;2023-04-15T08:03:17;15.73;;;11.30;;
77589;SDS011;66746;51.328;12.332;2023-04-15T08:05:46;14.18;;;11.07;;
77589;SDS011;66746;51.328;12.332;2023-04-15T08:08:20;15.32;;;11.88;;
77589;SDS011;66746;51.328;12.332;2023-04-15T08:10:47;17.50;;;10.32;;
77589;SDS011;66746;51.328;12.332;2023-04-15T08:13:19;12.48;;;10.13;;
77589;SDS011;66746;51.328;12.332;2023-04-15T08:15:45;16.33;;;11.48;;
77589;SDS011;66746;51.328;12.332;2023-04-15T08:18:19;14.02;;;10.52;;
77589;SDS011;66746;51.328;12.332;2023-04-15T08:20:50;13.13;;;8.88;;
77589;SDS011;66746;51.328;12.332;2023-04-15T08:23:17;14.90;;;9.50;;
77589;SDS011;66746;51.328;12.332;2023-04-15T08:25:47;15.57;;;11.52;;
77589;SDS011;66746;51.328;12.332;2023-04-15T08:28:14;16.67;;;9.25;;
77589;SDS011;66746;51.328;12.332;2023-04-15T08:30:51;16.40;;;11.27;;
77589;SDS011;66746;51.328;12.332;2023-04-15T08:33:17;17.95;;;12.35;;
77589;SDS011;66746;51.328;12.332;2023-04-15T08:35:50;15.30;;;10.80;;
77589;SDS011;66746;51.328;12.332;2023-04-15T08:38:17;13.48;;;8.98;;
77589;SDS011;66746;51.328;12.332;2023-04-15T08:40:46;13.27;;;7.80;;
77589;SDS011;66746;51.328;12.332;2023-04-15T08:43:19;13.45;;;7.88;;
77589;SDS011;66746;51.328;12.332;2023-04-15T08:45:47;14.02;;;11.07;;
77589;SDS011;66746;51.328;12.332;2023-04-15T08:48:17;14.65;;;9.02;;
77589;SDS011;66746;51.328;12.332;2023-04-15T08:50:45;14.88;;;11.50;;
77589;SDS011;66746;51.328;12.332;2023-04-15T08:53:17;15.90;;;10.27;;
77589;SDS011;66746;51.328;12.332;2023-04-15T08:55:45;14.65;;;10.38;;
77589;SDS011;66746;51.328;12.332;2023-04-15T08:58:16;15.63;;;10.95;;
77589;SDS011;66746;51.328;12.332;2023-04-15T09:00:46;15.07;;;10.82;;
77589;SDS011;66746;51.328;12.332;2023-04-15T09:03:13;14.63;;;11.63;;
77589;SDS011;66746;51.328;12.332;2023-04-15T09:05:42;14.38;;;9.57;;
77589;SDS011;66746;51.328;12.332;2023-04-15T09:08:11;16.45;;;11.07;;
77589;SDS011;66746;51.328;12.332;2023-04-15T09:10:38;19.17;;;10.75;;
77589;SDS011;66746;51.328;12.332;2023-04-15T09:13:04;20.33;;;13.82;;
77589;SDS011;66746;51.328;12.332;2023-04-15T09:15:31;17.15;;;11.60;;
77589;SDS011;66746;51.328;12.332;2023-04-15T09:17:58;20.00;;;12.15;;
77589;SDS011;66746;51.328;12.332;2023-04-15T09:20:26;19.90;;;12.80;;
77589;SDS011;66746;51.328;12.332;2023-04-15T09:22:52;21.02;;;13.35;;
77589;SDS011;66746;51.328;12.332;2023-04-15T09:25:26;19.02;;;12.80;;
77589;SDS011;66746;51.328;12.332;2023-04-15T09:27:54;20.95;;;14.00;;
77589;SDS011;66746;51.328;12.332;2023-04-15T09:30:21;22.27;;;12.35;;
77589;SDS011;66746;51.328;12.332;2023-04-15T09:32:49;18.05;;;13.73;;
77589;SDS011;66746;51.328;12.332;2023-04-15T09:35:16;19.58;;;14.65;;
77589;SDS011;66746;51.328;12.332;2023-04-15T09:37:49;20.13;;;12.63;;
77589;SDS011;66746;51.328;12.332;2023-04-15T09:40:30;20.38;;;14.05;;
77589;SDS011;66746;51.328;12.332;2023-04-15T09:42:57;22.67;;;12.95;;
77589;SDS011;66746;51.328;12.332;2023-04-15T09:45:24;22.52;;;15.45;;
77589;SDS011;66746;51.328;12.332;2023-04-15T09:47:58;26.05;;;15.55;;
77589;SDS011;66746;51.328;12.332;2023-04-15T09:50:47;24.42;;;14.05;;
77589;SDS011;66746;51.328;12.332;2023-04-15T09:53:19;20.15;;;13.20;;
77589;SDS011;66746;51.328;12.332;2023-04-15T09:55:48;22.67;;;15.55;;
77589;SDS011;66746;51.328;12.332;2023-04-15T09:58:16;24.27;;;15.32;;
77589;SDS011;66746;51.328;12.332;2023-04-15T10:00:49;20.30;;;14.82;;
77589;SDS011;66746;51.328;12.332;2023-04-15T10:03:19;23.20;;;15.73;;
77589;SDS011;66746;51.328;12.332;2023-04-15T10:05:47;25.35;;;17.25;;
77589;SDS011;66746;51.328;12.332;2023-04-15T10:08:21;27.05;;;15.93;;
77589;SDS011;66746;51.328;12.332;2023-04-15T10:10:49;23.20;;;16.80;;
77589;SDS011;66746;51.328;12.332;2023-04-15T10:13:18;27.95;;;18.40;;
77589;SDS011;66746;51.328;12.332;2023-04-15T10:15:47;27.98;;;18.98;;
77589;SDS011;66746;51.328;12.332;2023-04-15T10:18:18;25.10;;;17.25;;
77589;SDS011;66746;51.328;12.332;2023-04-15T10:20:49;29.35;;;17.98;;
77589;SDS011;66746;51.328;12.332;2023-04-15T10:23:17;26.90;;;16.63;;
77589;SDS011;66746;51.328;12.332;2023-04-15T10:25:47;30.75;;;20.60;;
77589;SDS011;66746;51.328;12.332;2023-04-15T10:28:18;26.30;;;18.13;;
77589;SDS011;66746;51.328;12.332;2023-04-15T10:30:45;30.70;;;19.90;;
77589;SDS011;66746;51.328;12.332;2023-04-15T10:33:21;25.88;;;17.45;;
77589;SDS011;66746;51.328;12.332;2023-04-15T10:35:50;30.70;;;19.10;;
77589;SDS011;66746;51.328;12.332;2023-04-15T10:38:32;29.60;;;19.65;;
77589;SDS011;66746;51.328;12.332;2023-04-15T10:41:17;30.35;;;21.88;;
77589;SDS011;66746;51.328;12.332;2023-04-15T10:43:50;33.45;;;20.60;;
77589;SDS011;66746;51.328;12.332;2023-04-15T10:46:23;29.05;;;19.73;;
77589;SDS011;66746;51.328;12.332;2023-04-15T10:48:59;29.92;;;19.15;;
77589;SDS011;66746;51.328;12.332;2023-04-15T10:51:33;30.88;;;18.05;;
77589;SDS011;66746;51.328;12.332;2023-04-15T10:56:34;32.13;;;18.67;;
77589;SDS011;66746;51.328;12.332;2023-04-15T10:59:01;31.35;;;21.00;;
77589;SDS011;66746;51.328;12.332;2023-04-15T11:07:34;27.95;;;19.63;;
77589;SDS011;66746;51.328;12.332;2023-04-15T11:10:03;29.85;;;20.35;;
77589;SDS011;66746;51.328;12.332;2023-04-15T11:13:17;29.65;;;19.25;;
77589;SDS011;66746;51.328;12.332;2023-04-15T11:15:48;26.92;;;19.40;;
77589;SDS011;66746;51.328;12.332;2023-04-15T11:18:15;24.67;;;17.15;;
77589;SDS011;66746;51.328;12.332;2023-04-15T11:20:46;29.50;;;19.27;;
77589;SDS011;66746;51.328;12.332;2023-04-15T11:23:13;26.70;;;17.83;;
77589;SDS011;66746;51.328;12.332;2023-04-15T11:25:48;27.65;;;20.30;;
77589;SDS011;66746;51.328;12.332;2023-04-15T11:28:15;31.50;;;22.27;;
77589;SDS011;66746;51.328;12.332;2023-04-15T11:30:46;28.38;;;18.20;;
77589;SDS011;66746;51.328;12.332;2023-04-15T11:33:12;28.17;;;20.83;;
77589;SDS011;66746;51.328;12.332;2023-04-15T11:35:44;30.05;;;20.92;;
77589;SDS011;66746;51.328;12.332;2023-04-15T11:38:17;30.88;;;21.52;;
77589;SDS011;66746;51.328;12.332;2023-04-15T11:40:49;28.95;;;20.10;;
77589;SDS011;66746;51.328;12.332;2023-04-15T11:43:19;31.80;;;21.35;;
77589;SDS011;66746;51.328;12.332;2023-04-15T11:45:48;28.45;;;19.58;;
77589;SDS011;66746;51.328;12.332;2023-04-15T11:48:17;25.90;;;18.45;;
77589;SDS011;66746;51.328;12.332;2023-04-15T11:50:51;23.30;;;18.42;;
77589;SDS011;66746;51.328;12.332;2023-04-15T11:53:19;26.30;;;19.48;;
77589;SDS011;66746;51.328;12.332;2023-04-15T11:55:48;25.30;;;17.08;;
77589;SDS011;66746;51.328;12.332;2023-04-15T11:58:18;26.52;;;16.70;;
77589;SDS011;66746;51.328;12.332;2023-04-15T12:00:49;21.88;;;16.80;;
77589;SDS011;66746;51.328;12.332;2023-04-15T12:03:21;22.95;;;16.55;;
77589;SDS011;66746;51.328;12.332;2023-04-15T12:06:09;23.10;;;15.93;;
77589;SDS011;66746;51.328;12.332;2023-04-15T12:11:38;22.40;;;14.82;;
77589;SDS011;66746;51.328;12.332;2023-04-15T12:14:07;19.75;;;13.50;;
77589;SDS011;66746;51.328;12.332;2023-04-15T12:16:36;19.45;;;13.30;;
77589;SDS011;66746;51.328;12.332;2023-04-15T12:19:16;21.23;;;16.75;;
77589;SDS011;66746;51.328;12.332;2023-04-15T12:21:49;22.63;;;17.00;;
77589;SDS011;66746;51.328;12.332;2023-04-15T12:24:18;21.92;;;14.50;;
77589;SDS011;66746;51.328;12.332;2023-04-15T12:26:48;20.35;;;16.00;;
77589;SDS011;66746;51.328;12.332;2023-04-15T12:29:18;18.48;;;14.15;;
77589;SDS011;66746;51.328;12.332;2023-04-15T12:31:51;18.10;;;14.50;;
77589;SDS011;66746;51.328;12.332;2023-04-15T12:34:24;18.75;;;15.40;;
77589;SDS011;66746;51.328;12.332;2023-04-15T12:36:52;19.02;;;12.70;;
77589;SDS011;66746;51.328;12.332;2023-04-15T12:39:20;17.88;;;14.48;;
77589;SDS011;66746;51.328;12.332;2023-04-15T12:41:49;16.55;;;12.75;;
77589;SDS011;66746;51.328;12.332;2023-04-15T12:44:17;15.40;;;10.98;;
77589;SDS011;66746;51.328;12.332;2023-04-15T12:46:47;16.92;;;14.40;;
77589;SDS011;66746;51.328;12.332;2023-04-15T12:49:20;17.85;;;15.70;;
77589;SDS011;66746;51.328;12.332;2023-04-15T12:54:16;15.68;;;10.98;;
77589;SDS011;66746;51.328;12.332;2023-04-15T12:56:43;12.68;;;9.25;;
77589;SDS011;66746;51.328;12.332;2023-04-15T12:59:11;12.55;;;11.13;;
77589;SDS011;66746;51.328;12.332;2023-04-15T13:01:38;12.38;;;10.02;;
77589;SDS011;66746;51.328;12.332;2023-04-15T13:04:04;11.68;;;10.38;;
77589;SDS011;66746;51.328;12.332;2023-04-15T13:06:31;12.98;;;10.90;;
77589;SDS011;66746;51.328;12.332;2023-04-15T13:08:58;10.98;;;8.77;;
77589;SDS011;66746;51.328;12.332;2023-04-15T13:11:25;12.35;;;10.45;;
77589;SDS011;66746;51.328;12.332;2023-04-15T13:13:51;11.95;;;10.70;;
77589;SDS011;66746;51.328;12.332;2023-04-15T13:16:19;12.82;;;9.60;;
77589;SDS011;66746;51.328;12.332;2023-04-15T13:18:45;12.85;;;10.88;;
77589;SDS011;66746;51.328;12.332;2023-04-15T13:21:12;12.38;;;10.60;;
77589;SDS011;66746;51.328;12.332;2023-04-15T13:23:39;11.82;;;10.60;;
77589;SDS011;66746;51.328;12.332;2023-04-15T13:26:06;14.00;;;12.48;;
77589;SDS011;66746;51.328;12.332;2023-04-15T13:28:33;12.73;;;9.05;;
77589;SDS011;66746;51.328;12.332;2023-04-15T13:30:59;13.63;;;9.90;;
77589;SDS011;66746;51.328;12.332;2023-04-15T13:33:27;12.52;;;8.85;;
77589;SDS011;66746;51.328;12.332;2023-04-15T13:35:53;11.00;;;9.05;;
77589;SDS011;66746;51.328;12.332;2023-04-15T13:38:21;12.80;;;10.10;;
77589;SDS011;66746;51.328;12.332;2023-04-15T13:40:49;11.05;;;9.88;;
77589;SDS011;66746;51.328;12.332;2023-04-15T13:43:16;11.25;;;9.38;;
77589;SDS011;66746;51.328;12.332;2023-04-15T13:45:42;9.05;;;7.70;;
77589;SDS011;66746;51.328;12.332;2023-04-15T13:48:09;13.25;;;9.07;;
77589;SDS011;66746;51.328;12.332;2023-04-15T13:50:37;11.05;;;9.93;;
77589;SDS011;66746;51.328;12.332;2023-04-15T13:53:06;9.98;;;7.93;;
77589;SDS011;66746;51.328;12.332;2023-04-15T13:55:33;10.63;;;9.63;;
77589;SDS011;66746;51.328;12.332;2023-04-15T13:57:59;12.75;;;9.00;;
77589;SDS011;66746;51.328;12.332;2023-04-15T14:00:26;11.45;;;10.27;;
77589;SDS011;66746;51.328;12.332;2023-04-15T14:02:54;10.52;;;9.27;;
77589;SDS011;66746;51.328;12.332;2023-04-15T14:05:20;10.60;;;9.50;;
77589;SDS011;66746;51.328;12.332;2023-04-15T14:07:48;10.75;;;9.65;;
77589;SDS011;66746;51.328;12.332;2023-04-15T14:10:14;11.15;;;10.07;;
77589;SDS011;66746;51.328;12.332;2023-04-15T14:12:41;11.95;;;10.82;;
77589;SDS011;66746;51.328;12.332;2023-04-15T14:15:07;12.30;;;10.73;;
77589;SDS011;66746;51.328;12.332;2023-04-15T14:17:34;12.00;;;10.82;;
77589;SDS011;66746;51.328;12.332;2023-04-15T14:20:01;12.85;;;11.05;;
77589;SDS011;66746;51.328;12.332;2023-04-15T14:22:28;12.73;;;10.93;;
77589;SDS011;66746;51.328;12.332;2023-04-15T14:24:56;14.00;;;9.77;;
77589;SDS011;66746;51.328;12.332;2023-04-15T14:27:22;11.13;;;9.45;;
77589;SDS011;66746;51.328;12.332;2023-04-15T14:29:48;12.05;;;10.68;;
77589;SDS011;66746;51.328;12.332;2023-04-15T14:32:15;12.70;;;11.32;;
77589;SDS011;66746;51.328;12.332;2023-04-15T14:34:42;11.57;;;10.38;;
77589;SDS011;66746;51.328;12.332;2023-04-15T14:37:08;10.75;;;8.02;;
77589;SDS011;66746;51.328;12.332;2023-04-15T14:39:34;11.55;;;9.18;;